sensor_id;sensor_type;location;lat;lon;timestamp;P1;durP1;ratioP1;P2;durP2;ratioP2
5553;SDS011;2800;49.528;8.666;2023-03-01T00:01:22;19.23;;;13.32;;
5553;SDS011;2800;49.528;8.666;2023-03-01T00:03:50;19.05;;;12.95;;
5553;SDS011;2800;49.528;8.666;2023-03-01T00:06:16;18.80;;;13.18;;
5553;SDS011;2800;49.528;8.666;2023-03-01T00:08:42;19.30;;;12.38;;
5553;SDS011;2800;49.528;8.666;2023-03-01T00:11:18;16.37;;;12.93;;
5553;SDS011;2800;49.528;8.666;2023-03-01T00:13:46;19.20;;;13.70;;
5553;SDS011;2800;49.528;8.666;2023-03-01T00:16:14;20.70;;;12.48;;
5553;SDS011;2800;49.528;8.666;2023-03-01T00:18:42;19.27;;;13.20;;
5553;SDS011;2800;49.528;8.666;2023-03-01T00:21:07;25.10;;;14.00;;
5553;SDS011;2800;49.528;8.666;2023-03-01T00:23:33;19.97;;;13.40;;
5553;SDS011;2800;49.528;8.666;2023-03-01T00:26:00;20.80;;;12.20;;
5553;SDS011;2800;49.528;8.666;2023-03-01T00:28:26;22.43;;;14.30;;
5553;SDS011;2800;49.528;8.666;2023-03-01T00:30:52;21.73;;;13.20;;
5553;SDS011;2800;49.528;8.666;2023-03-01T00:33:17;21.93;;;13.37;;
5553;SDS011;2800;49.528;8.666;2023-03-01T00:35:43;16.33;;;10.27;;
5553;SDS011;2800;49.528;8.666;2023-03-01T00:38:09;17.70;;;12.73;;
5553;SDS011;2800;49.528;8.666;2023-03-01T00:40:34;21.13;;;12.90;;
5553;SDS011;2800;49.528;8.666;2023-03-01T00:43:01;20.02;;;14.13;;
5553;SDS011;2800;49.528;8.666;2023-03-01T00:45:27;16.17;;;9.80;;
5553;SDS011;2800;49.528;8.666;2023-03-01T00:47:53;18.43;;;8.83;;
5553;SDS011;2800;49.528;8.666;2023-03-01T00:50:19;20.87;;;14.23;;
5553;SDS011;2800;49.528;8.666;2023-03-01T00:52:45;24.00;;;14.67;;
5553;SDS011;2800;49.528;8.666;2023-03-01T00:55:11;25.27;;;14.93;;
5553;SDS011;2800;49.528;8.666;2023-03-01T00:57:37;21.52;;;14.23;;
5553;SDS011;2800;49.528;8.666;2023-03-01T01:00:04;21.37;;;14.00;;
5553;SDS011;2800;49.528;8.666;2023-03-01T01:02:32;22.92;;;14.50;;
5553;SDS011;2800;49.528;8.666;2023-03-01T01:04:58;22.77;;;14.95;;
5553;SDS011;2800;49.528;8.666;2023-03-01T01:07:24;21.20;;;14.50;;
5553;SDS011;2800;49.528;8.666;2023-03-01T01:09:50;22.20;;;15.10;;
5553;SDS011;2800;49.528;8.666;2023-03-01T01:12:15;19.73;;;14.53;;
5553;SDS011;2800;49.528;8.666;2023-03-01T01:14:41;20.60;;;11.83;;
5553;SDS011;2800;49.528;8.666;2023-03-01T01:17:06;21.70;;;14.13;;
5553;SDS011;2800;49.528;8.666;2023-03-01T01:19:32;21.83;;;14.37;;
5553;SDS011;2800;49.528;8.666;2023-03-01T01:21:57;19.47;;;13.63;;
5553;SDS011;2800;49.528;8.666;2023-03-01T01:24:23;24.83;;;14.97;;
5553;SDS011;2800;49.528;8.666;2023-03-01T01:26:48;22.03;;;14.07;;
5553;SDS011;2800;49.528;8.666;2023-03-01T01:29:14;22.50;;;15.07;;
5553;SDS011;2800;49.528;8.666;2023-03-01T01:31:41;18.23;;;10.17;;
5553;SDS011;2800;49.528;8.666;2023-03-01T01:34:08;19.63;;;12.20;;
5553;SDS011;2800;49.528;8.666;2023-03-01T01:36:38;22.40;;;14.50;;
5553;SDS011;2800;49.528;8.666;2023-03-01T01:39:03;18.20;;;12.37;;
5553;SDS011;2800;49.528;8.666;2023-03-01T01:41:29;16.85;;;10.55;;
5553;SDS011;2800;49.528;8.666;2023-03-01T01:44:12;23.63;;;13.43;;
5553;SDS011;2800;49.528;8.666;2023-03-01T01:46:56;22.33;;;15.00;;
5553;SDS011;2800;49.528;8.666;2023-03-01T01:49:32;18.13;;;12.68;;
5553;SDS011;2800;49.528;8.666;2023-03-01T01:52:06;20.30;;;13.45;;
5553;SDS011;2800;49.528;8.666;2023-03-01T01:54:46;19.65;;;12.27;;
5553;SDS011;2800;49.528;8.666;2023-03-01T01:57:46;22.10;;;14.43;;
5553;SDS011;2800;49.528;8.666;2023-03-01T02:00:15;21.35;;;14.80;;
5553;SDS011;2800;49.528;8.666;2023-03-01T02:02:47;24.17;;;12.60;;
5553;SDS011;2800;49.528;8.666;2023-03-01T02:06:00;23.20;;;14.02;;
5553;SDS011;2800;49.528;8.666;2023-03-01T02:08:23;21.67;;;11.95;;
5553;SDS011;2800;49.528;8.666;2023-03-01T02:10:51;22.38;;;14.93;;
5553;SDS011;2800;49.528;8.666;2023-03-01T02:13:19;23.30;;;12.98;;
5553;SDS011;2800;49.528;8.666;2023-03-01T02:15:44;25.37;;;16.90;;
5553;SDS011;2800;49.528;8.666;2023-03-01T02:18:11;26.37;;;16.40;;
5553;SDS011;2800;49.528;8.666;2023-03-01T02:23:44;17.58;;;9.98;;
5553;SDS011;2800;49.528;8.666;2023-03-01T02:26:21;26.37;;;15.77;;
5553;SDS011;2800;49.528;8.666;2023-03-01T02:28:55;22.85;;;14.30;;
5553;SDS011;2800;49.528;8.666;2023-03-01T02:31:21;25.43;;;15.23;;
5553;SDS011;2800;49.528;8.666;2023-03-01T02:34:06;24.02;;;16.30;;
5553;SDS011;2800;49.528;8.666;2023-03-01T02:36:35;23.40;;;16.20;;
5553;SDS011;2800;49.528;8.666;2023-03-01T02:39:03;23.30;;;15.98;;
5553;SDS011;2800;49.528;8.666;2023-03-01T02:41:33;21.75;;;15.45;;
5553;SDS011;2800;49.528;8.666;2023-03-01T02:44:01;23.65;;;16.27;;
5553;SDS011;2800;49.528;8.666;2023-03-01T02:46:27;26.40;;;16.77;;
5553;SDS011;2800;49.528;8.666;2023-03-01T02:48:57;25.20;;;17.80;;
5553;SDS011;2800;49.528;8.666;2023-03-01T02:54:05;23.42;;;15.23;;
5553;SDS011;2800;49.528;8.666;2023-03-01T02:56:33;28.20;;;19.00;;
5553;SDS011;2800;49.528;8.666;2023-03-01T02:58:59;24.15;;;17.00;;
5553;SDS011;2800;49.528;8.666;2023-03-01T03:01:26;24.47;;;16.67;;
5553;SDS011;2800;49.528;8.666;2023-03-01T03:04:09;23.83;;;17.13;;
5553;SDS011;2800;49.528;8.666;2023-03-01T03:06:36;27.95;;;17.92;;
5553;SDS011;2800;49.528;8.666;2023-03-01T03:09:02;27.33;;;17.70;;
5553;SDS011;2800;49.528;8.666;2023-03-01T03:11:29;24.48;;;17.55;;
5553;SDS011;2800;49.528;8.666;2023-03-01T03:13:55;25.17;;;17.17;;
5553;SDS011;2800;49.528;8.666;2023-03-01T03:16:22;28.98;;;17.88;;
5553;SDS011;2800;49.528;8.666;2023-03-01T03:18:47;28.70;;;16.80;;
5553;SDS011;2800;49.528;8.666;2023-03-01T03:21:14;26.63;;;17.57;;
5553;SDS011;2800;49.528;8.666;2023-03-01T03:23:40;24.83;;;19.15;;
5553;SDS011;2800;49.528;8.666;2023-03-01T03:26:05;25.80;;;18.60;;
5553;SDS011;2800;49.528;8.666;2023-03-01T03:28:31;30.83;;;18.63;;
5553;SDS011;2800;49.528;8.666;2023-03-01T03:31:00;26.77;;;19.02;;
5553;SDS011;2800;49.528;8.666;2023-03-01T03:33:29;25.90;;;18.27;;
5553;SDS011;2800;49.528;8.666;2023-03-01T03:35:55;28.20;;;17.77;;
5553;SDS011;2800;49.528;8.666;2023-03-01T03:38:20;25.83;;;18.00;;
5553;SDS011;2800;49.528;8.666;2023-03-01T03:40:59;25.80;;;18.67;;
5553;SDS011;2800;49.528;8.666;2023-03-01T03:43:30;26.98;;;18.13;;
5553;SDS011;2800;49.528;8.666;2023-03-01T03:45:57;27.65;;;18.60;;
5553;SDS011;2800;49.528;8.666;2023-03-01T03:48:23;27.30;;;18.67;;
5553;SDS011;2800;49.528;8.666;2023-03-01T03:50:51;28.33;;;18.95;;
5553;SDS011;2800;49.528;8.666;2023-03-01T03:53:18;25.45;;;18.55;;
5553;SDS011;2800;49.528;8.666;2023-03-01T03:55:45;26.95;;;18.95;;
5553;SDS011;2800;49.528;8.666;2023-03-01T03:58:14;27.80;;;19.00;;
5553;SDS011;2800;49.528;8.666;2023-03-01T04:00:40;28.97;;;19.93;;
5553;SDS011;2800;49.528;8.666;2023-03-01T04:03:08;30.13;;;18.30;;
5553;SDS011;2800;49.528;8.666;2023-03-01T04:05:35;27.48;;;18.77;;
5553;SDS011;2800;49.528;8.666;2023-03-01T04:08:02;27.17;;;18.45;;
5553;SDS011;2800;49.528;8.666;2023-03-01T04:10:28;31.00;;;20.10;;
5553;SDS011;2800;49.528;8.666;2023-03-01T04:12:55;28.95;;;19.23;;
5553;SDS011;2800;49.528;8.666;2023-03-01T04:15:21;29.02;;;19.75;;
5553;SDS011;2800;49.528;8.666;2023-03-01T04:17:49;28.45;;;19.20;;
5553;SDS011;2800;49.528;8.666;2023-03-01T04:20:17;29.30;;;19.50;;
5553;SDS011;2800;49.528;8.666;2023-03-01T04:22:51;31.90;;;18.50;;
5553;SDS011;2800;49.528;8.666;2023-03-01T04:25:33;28.83;;;19.10;;
5553;SDS011;2800;49.528;8.666;2023-03-01T04:27:58;27.43;;;19.00;;
5553;SDS011;2800;49.528;8.666;2023-03-01T04:30:24;27.03;;;19.77;;
5553;SDS011;2800;49.528;8.666;2023-03-01T04:32:50;26.33;;;19.50;;
5553;SDS011;2800;49.528;8.666;2023-03-01T04:35:15;31.57;;;19.90;;
5553;SDS011;2800;49.528;8.666;2023-03-01T04:37:41;28.37;;;19.43;;
5553;SDS011;2800;49.528;8.666;2023-03-01T04:40:07;28.50;;;20.50;;
5553;SDS011;2800;49.528;8.666;2023-03-01T04:42:40;28.80;;;19.45;;
5553;SDS011;2800;49.528;8.666;2023-03-01T04:45:06;30.70;;;19.87;;
5553;SDS011;2800;49.528;8.666;2023-03-01T04:47:37;30.08;;;19.60;;
5553;SDS011;2800;49.528;8.666;2023-03-01T04:50:04;28.85;;;20.38;;
5553;SDS011;2800;49.528;8.666;2023-03-01T04:52:30;27.53;;;19.70;;
5553;SDS011;2800;49.528;8.666;2023-03-01T04:54:56;28.42;;;20.05;;
5553;SDS011;2800;49.528;8.666;2023-03-01T04:57:22;29.00;;;20.67;;
5553;SDS011;2800;49.528;8.666;2023-03-01T04:59:47;26.43;;;19.13;;
5553;SDS011;2800;49.528;8.666;2023-03-01T05:02:13;28.53;;;18.90;;
5553;SDS011;2800;49.528;8.666;2023-03-01T05:04:38;28.20;;;19.53;;
5553;SDS011;2800;49.528;8.666;2023-03-01T05:07:03;30.13;;;20.73;;
5553;SDS011;2800;49.528;8.666;2023-03-01T05:09:29;31.10;;;20.60;;
5553;SDS011;2800;49.528;8.666;2023-03-01T05:11:54;32.37;;;21.33;;
5553;SDS011;2800;49.528;8.666;2023-03-01T05:14:20;30.13;;;21.40;;
5553;SDS011;2800;49.528;8.666;2023-03-01T05:16:46;29.13;;;20.50;;
5553;SDS011;2800;49.528;8.666;2023-03-01T05:19:12;27.50;;;20.93;;
5553;SDS011;2800;49.528;8.666;2023-03-01T05:21:40;30.23;;;21.02;;
5553;SDS011;2800;49.528;8.666;2023-03-01T05:24:39;29.35;;;18.75;;
5553;SDS011;2800;49.528;8.666;2023-03-01T05:27:04;30.00;;;19.93;;
5553;SDS011;2800;49.528;8.666;2023-03-01T05:29:31;29.90;;;20.90;;
5553;SDS011;2800;49.528;8.666;2023-03-01T05:32:00;29.08;;;20.77;;
5553;SDS011;2800;49.528;8.666;2023-03-01T05:34:28;26.00;;;20.02;;
5553;SDS011;2800;49.528;8.666;2023-03-01T05:36:58;31.15;;;21.10;;
5553;SDS011;2800;49.528;8.666;2023-03-01T05:39:24;28.45;;;20.88;;
5553;SDS011;2800;49.528;8.666;2023-03-01T05:41:52;28.67;;;20.42;;
5553;SDS011;2800;49.528;8.666;2023-03-01T05:44:18;27.65;;;20.10;;
5553;SDS011;2800;49.528;8.666;2023-03-01T05:46:44;31.33;;;22.20;;
5553;SDS011;2800;49.528;8.666;2023-03-01T05:49:10;28.57;;;21.27;;
5553;SDS011;2800;49.528;8.666;2023-03-01T05:51:38;29.63;;;20.27;;
5553;SDS011;2800;49.528;8.666;2023-03-01T05:54:04;30.60;;;21.10;;
5553;SDS011;2800;49.528;8.666;2023-03-01T05:56:31;28.45;;;20.65;;
5553;SDS011;2800;49.528;8.666;2023-03-01T05:59:01;27.30;;;20.95;;
5553;SDS011;2800;49.528;8.666;2023-03-01T06:01:27;32.05;;;23.17;;
5553;SDS011;2800;49.528;8.666;2023-03-01T06:03:54;30.10;;;21.55;;
5553;SDS011;2800;49.528;8.666;2023-03-01T06:06:21;27.92;;;20.77;;
5553;SDS011;2800;49.528;8.666;2023-03-01T06:08:48;28.48;;;20.38;;
5553;SDS011;2800;49.528;8.666;2023-03-01T06:11:13;31.33;;;23.10;;
5553;SDS011;2800;49.528;8.666;2023-03-01T06:13:40;35.47;;;22.53;;
5553;SDS011;2800;49.528;8.666;2023-03-01T06:16:08;30.80;;;22.40;;
5553;SDS011;2800;49.528;8.666;2023-03-01T06:18:34;32.03;;;21.70;;
5553;SDS011;2800;49.528;8.666;2023-03-01T06:20:59;29.20;;;20.77;;
5553;SDS011;2800;49.528;8.666;2023-03-01T06:23:25;30.13;;;20.77;;
5553;SDS011;2800;49.528;8.666;2023-03-01T06:25:50;31.70;;;21.47;;
5553;SDS011;2800;49.528;8.666;2023-03-01T06:28:16;31.53;;;21.67;;
5553;SDS011;2800;49.528;8.666;2023-03-01T06:30:42;30.13;;;21.60;;
5553;SDS011;2800;49.528;8.666;2023-03-01T06:33:07;30.10;;;20.93;;
5553;SDS011;2800;49.528;8.666;2023-03-01T06:35:33;27.40;;;21.43;;
5553;SDS011;2800;49.528;8.666;2023-03-01T06:38:00;34.90;;;20.80;;
5553;SDS011;2800;49.528;8.666;2023-03-01T06:40:27;30.45;;;20.63;;
5553;SDS011;2800;49.528;8.666;2023-03-01T06:42:53;30.45;;;21.40;;
5553;SDS011;2800;49.528;8.666;2023-03-01T06:45:19;27.23;;;20.60;;
5553;SDS011;2800;49.528;8.666;2023-03-01T06:47:46;29.50;;;21.23;;
5553;SDS011;2800;49.528;8.666;2023-03-01T06:50:11;26.93;;;20.57;;
5553;SDS011;2800;49.528;8.666;2023-03-01T06:52:38;27.98;;;19.92;;
5553;SDS011;2800;49.528;8.666;2023-03-01T06:55:04;27.03;;;20.70;;
5553;SDS011;2800;49.528;8.666;2023-03-01T06:57:30;27.13;;;19.88;;
5553;SDS011;2800;49.528;8.666;2023-03-01T06:59:56;27.73;;;20.20;;
5553;SDS011;2800;49.528;8.666;2023-03-01T07:02:22;30.00;;;21.10;;
5553;SDS011;2800;49.528;8.666;2023-03-01T07:04:51;26.17;;;19.88;;
5553;SDS011;2800;49.528;8.666;2023-03-01T07:07:17;30.30;;;20.27;;
5553;SDS011;2800;49.528;8.666;2023-03-01T07:09:43;27.70;;;21.03;;
5553;SDS011;2800;49.528;8.666;2023-03-01T07:12:09;31.97;;;22.33;;
5553;SDS011;2800;49.528;8.666;2023-03-01T07:14:35;28.53;;;20.33;;
5553;SDS011;2800;49.528;8.666;2023-03-01T07:17:00;26.50;;;19.23;;
5553;SDS011;2800;49.528;8.666;2023-03-01T07:19:26;29.50;;;21.60;;
5553;SDS011;2800;49.528;8.666;2023-03-01T07:21:52;28.40;;;20.80;;
5553;SDS011;2800;49.528;8.666;2023-03-01T07:24:17;28.67;;;20.70;;
5553;SDS011;2800;49.528;8.666;2023-03-01T07:26:43;32.53;;;20.60;;
5553;SDS011;2800;49.528;8.666;2023-03-01T07:29:09;27.20;;;19.60;;
5553;SDS011;2800;49.528;8.666;2023-03-01T07:31:36;27.53;;;18.87;;
5553;SDS011;2800;49.528;8.666;2023-03-01T07:34:01;26.20;;;19.60;;
5553;SDS011;2800;49.528;8.666;2023-03-01T07:36:27;28.27;;;21.13;;
5553;SDS011;2800;49.528;8.666;2023-03-01T07:38:53;27.97;;;19.37;;
5553;SDS011;2800;49.528;8.666;2023-03-01T07:41:20;30.20;;;19.77;;
5553;SDS011;2800;49.528;8.666;2023-03-01T07:43:46;27.43;;;20.43;;
5553;SDS011;2800;49.528;8.666;2023-03-01T07:46:11;28.83;;;20.23;;
5553;SDS011;2800;49.528;8.666;2023-03-01T07:48:37;26.53;;;20.47;;
5553;SDS011;2800;49.528;8.666;2023-03-01T07:51:03;25.00;;;20.00;;
5553;SDS011;2800;49.528;8.666;2023-03-01T07:53:30;27.60;;;19.60;;
5553;SDS011;2800;49.528;8.666;2023-03-01T07:56:05;28.23;;;20.03;;
5553;SDS011;2800;49.528;8.666;2023-03-01T07:58:40;28.30;;;19.47;;
5553;SDS011;2800;49.528;8.666;2023-03-01T08:01:08;24.13;;;18.80;;
5553;SDS011;2800;49.528;8.666;2023-03-01T08:03:35;26.20;;;18.67;;
5553;SDS011;2800;49.528;8.666;2023-03-01T08:06:02;24.20;;;19.60;;
5553;SDS011;2800;49.528;8.666;2023-03-01T08:08:28;25.47;;;19.07;;
5553;SDS011;2800;49.528;8.666;2023-03-01T08:10:57;25.17;;;19.30;;
5553;SDS011;2800;49.528;8.666;2023-03-01T08:13:24;24.20;;;19.83;;
5553;SDS011;2800;49.528;8.666;2023-03-01T08:15:50;26.23;;;19.83;;
5553;SDS011;2800;49.528;8.666;2023-03-01T08:18:16;25.13;;;19.70;;
5553;SDS011;2800;49.528;8.666;2023-03-01T08:20:42;27.07;;;19.10;;
5553;SDS011;2800;49.528;8.666;2023-03-01T08:23:08;26.40;;;19.63;;
5553;SDS011;2800;49.528;8.666;2023-03-01T08:25:34;26.17;;;20.80;;
5553;SDS011;2800;49.528;8.666;2023-03-01T08:27:59;28.23;;;20.33;;
5553;SDS011;2800;49.528;8.666;2023-03-01T08:30:25;20.93;;;17.10;;
5553;SDS011;2800;49.528;8.666;2023-03-01T08:32:51;24.10;;;18.73;;
5553;SDS011;2800;49.528;8.666;2023-03-01T08:35:17;26.07;;;18.70;;
5553;SDS011;2800;49.528;8.666;2023-03-01T08:37:42;24.80;;;19.70;;
5553;SDS011;2800;49.528;8.666;2023-03-01T08:40:08;25.17;;;18.90;;
5553;SDS011;2800;49.528;8.666;2023-03-01T08:42:35;27.03;;;19.17;;
5553;SDS011;2800;49.528;8.666;2023-03-01T08:45:02;23.87;;;19.40;;
5553;SDS011;2800;49.528;8.666;2023-03-01T08:47:28;25.27;;;19.97;;
5553;SDS011;2800;49.528;8.666;2023-03-01T08:49:54;25.07;;;19.87;;
5553;SDS011;2800;49.528;8.666;2023-03-01T08:52:19;25.80;;;19.67;;
5553;SDS011;2800;49.528;8.666;2023-03-01T08:54:47;24.30;;;18.97;;
5553;SDS011;2800;49.528;8.666;2023-03-01T08:57:13;25.30;;;20.47;;
5553;SDS011;2800;49.528;8.666;2023-03-01T08:59:39;24.37;;;19.00;;
5553;SDS011;2800;49.528;8.666;2023-03-01T09:02:06;24.30;;;20.00;;
5553;SDS011;2800;49.528;8.666;2023-03-01T09:04:40;26.03;;;20.20;;
5553;SDS011;2800;49.528;8.666;2023-03-01T09:07:05;25.20;;;20.23;;
5553;SDS011;2800;49.528;8.666;2023-03-01T09:09:31;23.40;;;19.53;;
5553;SDS011;2800;49.528;8.666;2023-03-01T09:11:57;25.90;;;20.27;;
5553;SDS011;2800;49.528;8.666;2023-03-01T09:14:22;25.63;;;20.37;;
5553;SDS011;2800;49.528;8.666;2023-03-01T09:16:48;22.23;;;19.13;;
5553;SDS011;2800;49.528;8.666;2023-03-01T09:19:14;25.10;;;19.50;;
5553;SDS011;2800;49.528;8.666;2023-03-01T09:21:39;24.90;;;19.43;;
5553;SDS011;2800;49.528;8.666;2023-03-01T09:24:05;28.23;;;20.47;;
5553;SDS011;2800;49.528;8.666;2023-03-01T09:26:36;30.13;;;20.60;;
5553;SDS011;2800;49.528;8.666;2023-03-01T09:29:01;24.30;;;20.70;;
5553;SDS011;2800;49.528;8.666;2023-03-01T09:31:27;24.60;;;21.10;;
5553;SDS011;2800;49.528;8.666;2023-03-01T09:33:53;26.80;;;20.20;;
5553;SDS011;2800;49.528;8.666;2023-03-01T09:36:20;26.23;;;20.47;;
5553;SDS011;2800;49.528;8.666;2023-03-01T09:38:47;24.37;;;19.43;;
5553;SDS011;2800;49.528;8.666;2023-03-01T09:46:47;25.77;;;20.43;;
5553;SDS011;2800;49.528;8.666;2023-03-01T09:49:21;24.43;;;20.50;;
5553;SDS011;2800;49.528;8.666;2023-03-01T09:51:58;24.83;;;19.90;;
5553;SDS011;2800;49.528;8.666;2023-03-01T09:54:28;26.03;;;20.73;;
5553;SDS011;2800;49.528;8.666;2023-03-01T09:56:59;25.37;;;20.17;;
5553;SDS011;2800;49.528;8.666;2023-03-01T10:02:32;26.40;;;20.43;;
5553;SDS011;2800;49.528;8.666;2023-03-01T10:10:40;24.67;;;20.20;;
5553;SDS011;2800;49.528;8.666;2023-03-01T10:16:17;28.23;;;21.57;;
5553;SDS011;2800;49.528;8.666;2023-03-01T10:18:49;30.10;;;21.07;;
5553;SDS011;2800;49.528;8.666;2023-03-01T10:21:20;24.37;;;19.57;;
5553;SDS011;2800;49.528;8.666;2023-03-01T10:23:46;29.93;;;20.50;;
5553;SDS011;2800;49.528;8.666;2023-03-01T10:26:30;25.73;;;19.80;;
5553;SDS011;2800;49.528;8.666;2023-03-01T10:29:06;23.43;;;19.83;;
5553;SDS011;2800;49.528;8.666;2023-03-01T10:31:37;36.60;;;23.07;;
5553;SDS011;2800;49.528;8.666;2023-03-01T10:34:14;119.47;;;61.23;;
5553;SDS011;2800;49.528;8.666;2023-03-01T10:36:49;58.97;;;35.50;;
5553;SDS011;2800;49.528;8.666;2023-03-01T10:39:19;25.57;;;19.50;;
5553;SDS011;2800;49.528;8.666;2023-03-01T10:44:38;23.93;;;20.00;;
5553;SDS011;2800;49.528;8.666;2023-03-01T10:47:15;70.17;;;43.27;;
5553;SDS011;2800;49.528;8.666;2023-03-01T10:52:23;52.70;;;36.83;;
5553;SDS011;2800;49.528;8.666;2023-03-01T10:54:55;22.43;;;19.40;;
5553;SDS011;2800;49.528;8.666;2023-03-01T10:57:31;25.90;;;18.20;;
5553;SDS011;2800;49.528;8.666;2023-03-01T11:02:45;25.50;;;18.43;;
5553;SDS011;2800;49.528;8.666;2023-03-01T11:05:22;27.70;;;19.67;;
5553;SDS011;2800;49.528;8.666;2023-03-01T11:07:50;21.30;;;17.70;;
5553;SDS011;2800;49.528;8.666;2023-03-01T11:10:25;25.83;;;19.50;;
5553;SDS011;2800;49.528;8.666;2023-03-01T11:13:13;24.53;;;18.07;;
5553;SDS011;2800;49.528;8.666;2023-03-01T11:15:41;27.67;;;19.77;;
5553;SDS011;2800;49.528;8.666;2023-03-01T11:18:20;23.97;;;17.83;;
5553;SDS011;2800;49.528;8.666;2023-03-01T11:20:47;24.37;;;19.77;;
5553;SDS011;2800;49.528;8.666;2023-03-01T11:23:16;25.57;;;18.50;;
5553;SDS011;2800;49.528;8.666;2023-03-01T11:25:43;24.37;;;19.53;;
5553;SDS011;2800;49.528;8.666;2023-03-01T11:28:15;23.87;;;19.37;;
5553;SDS011;2800;49.528;8.666;2023-03-01T11:36:06;23.60;;;18.50;;
5553;SDS011;2800;49.528;8.666;2023-03-01T11:38:54;24.90;;;18.23;;
5553;SDS011;2800;49.528;8.666;2023-03-01T11:41:21;26.00;;;19.83;;
5553;SDS011;2800;49.528;8.666;2023-03-01T11:43:56;27.90;;;17.63;;
5553;SDS011;2800;49.528;8.666;2023-03-01T11:46:43;23.10;;;17.23;;
5553;SDS011;2800;49.528;8.666;2023-03-01T11:49:38;23.07;;;17.10;;
5553;SDS011;2800;49.528;8.666;2023-03-01T11:55:40;24.07;;;17.77;;
5553;SDS011;2800;49.528;8.666;2023-03-01T12:01:13;21.43;;;16.93;;
5553;SDS011;2800;49.528;8.666;2023-03-01T12:06:51;24.13;;;17.90;;
5553;SDS011;2800;49.528;8.666;2023-03-01T12:09:36;23.20;;;17.63;;
5553;SDS011;2800;49.528;8.666;2023-03-01T12:14:44;26.00;;;18.30;;
5553;SDS011;2800;49.528;8.666;2023-03-01T12:23:15;22.10;;;16.20;;
5553;SDS011;2800;49.528;8.666;2023-03-01T12:28:40;21.43;;;16.07;;
5553;SDS011;2800;49.528;8.666;2023-03-01T12:45:01;19.73;;;14.80;;
5553;SDS011;2800;49.528;8.666;2023-03-01T12:50:17;21.57;;;15.20;;
5553;SDS011;2800;49.528;8.666;2023-03-01T12:55:31;19.53;;;15.50;;
5553;SDS011;2800;49.528;8.666;2023-03-01T12:58:05;21.17;;;15.63;;
5553;SDS011;2800;49.528;8.666;2023-03-01T13:00:45;20.23;;;16.47;;
5553;SDS011;2800;49.528;8.666;2023-03-01T13:03:26;19.20;;;14.90;;
5553;SDS011;2800;49.528;8.666;2023-03-01T13:06:12;25.73;;;16.20;;
5553;SDS011;2800;49.528;8.666;2023-03-01T13:11:29;21.10;;;16.10;;
5553;SDS011;2800;49.528;8.666;2023-03-01T13:16:45;19.87;;;15.27;;
5553;SDS011;2800;49.528;8.666;2023-03-01T13:19:17;19.57;;;15.20;;
5553;SDS011;2800;49.528;8.666;2023-03-01T13:21:51;19.10;;;14.77;;
5553;SDS011;2800;49.528;8.666;2023-03-01T13:24:25;17.57;;;14.77;;
5553;SDS011;2800;49.528;8.666;2023-03-01T13:32:24;18.57;;;14.20;;
5553;SDS011;2800;49.528;8.666;2023-03-01T13:34:55;19.80;;;14.33;;
5553;SDS011;2800;49.528;8.666;2023-03-01T13:37:35;20.40;;;14.70;;
5553;SDS011;2800;49.528;8.666;2023-03-01T13:40:04;24.00;;;18.50;;
5553;SDS011;2800;49.528;8.666;2023-03-01T13:42:53;17.90;;;14.13;;
5553;SDS011;2800;49.528;8.666;2023-03-01T13:47:49;17.30;;;14.00;;
5553;SDS011;2800;49.528;8.666;2023-03-01T13:50:20;20.03;;;14.23;;
5553;SDS011;2800;49.528;8.666;2023-03-01T13:55:34;16.80;;;13.20;;
5553;SDS011;2800;49.528;8.666;2023-03-01T13:58:22;17.07;;;13.53;;
5553;SDS011;2800;49.528;8.666;2023-03-01T14:00:57;20.87;;;13.53;;
5553;SDS011;2800;49.528;8.666;2023-03-01T14:03:39;18.57;;;14.33;;
5553;SDS011;2800;49.528;8.666;2023-03-01T14:06:08;19.27;;;13.10;;
5553;SDS011;2800;49.528;8.666;2023-03-01T14:08:38;20.90;;;13.93;;
5553;SDS011;2800;49.528;8.666;2023-03-01T14:14:17;19.03;;;14.67;;
5553;SDS011;2800;49.528;8.666;2023-03-01T14:19:29;19.30;;;13.40;;
5553;SDS011;2800;49.528;8.666;2023-03-01T14:24:44;18.60;;;13.67;;
5553;SDS011;2800;49.528;8.666;2023-03-01T14:27:14;19.20;;;13.30;;
5553;SDS011;2800;49.528;8.666;2023-03-01T14:29:40;17.27;;;13.20;;
5553;SDS011;2800;49.528;8.666;2023-03-01T14:32:17;19.03;;;13.00;;
5553;SDS011;2800;49.528;8.666;2023-03-01T14:34:45;21.17;;;14.17;;
5553;SDS011;2800;49.528;8.666;2023-03-01T14:37:32;19.00;;;12.73;;
5553;SDS011;2800;49.528;8.666;2023-03-01T14:40:00;18.27;;;12.90;;
5553;SDS011;2800;49.528;8.666;2023-03-01T14:42:33;16.63;;;12.70;;
5553;SDS011;2800;49.528;8.666;2023-03-01T14:45:01;23.63;;;13.10;;
5553;SDS011;2800;49.528;8.666;2023-03-01T14:47:32;16.70;;;12.77;;
5553;SDS011;2800;49.528;8.666;2023-03-01T14:50:05;14.40;;;11.67;;
5553;SDS011;2800;49.528;8.666;2023-03-01T14:52:36;18.27;;;12.97;;
5553;SDS011;2800;49.528;8.666;2023-03-01T14:55:05;17.93;;;12.17;;
5553;SDS011;2800;49.528;8.666;2023-03-01T14:57:38;15.97;;;11.77;;
5553;SDS011;2800;49.528;8.666;2023-03-01T15:00:10;16.03;;;12.30;;
5553;SDS011;2800;49.528;8.666;2023-03-01T15:02:48;15.97;;;12.27;;
5553;SDS011;2800;49.528;8.666;2023-03-01T15:05:15;16.70;;;12.00;;
5553;SDS011;2800;49.528;8.666;2023-03-01T15:07:43;18.13;;;13.40;;
5553;SDS011;2800;49.528;8.666;2023-03-01T15:10:33;21.00;;;15.30;;
5553;SDS011;2800;49.528;8.666;2023-03-01T15:13:13;14.03;;;10.83;;
5553;SDS011;2800;49.528;8.666;2023-03-01T15:15:50;16.50;;;12.20;;
5553;SDS011;2800;49.528;8.666;2023-03-01T15:18:19;20.40;;;15.53;;
5553;SDS011;2800;49.528;8.666;2023-03-01T15:20:47;15.23;;;11.17;;
5553;SDS011;2800;49.528;8.666;2023-03-01T15:23:24;15.10;;;12.00;;
5553;SDS011;2800;49.528;8.666;2023-03-01T15:25:52;17.30;;;11.70;;
5553;SDS011;2800;49.528;8.666;2023-03-01T15:28:23;16.50;;;11.57;;
5553;SDS011;2800;49.528;8.666;2023-03-01T15:30:55;17.27;;;12.67;;
5553;SDS011;2800;49.528;8.666;2023-03-01T15:33:27;15.27;;;11.07;;
5553;SDS011;2800;49.528;8.666;2023-03-01T15:35:57;17.00;;;12.10;;
5553;SDS011;2800;49.528;8.666;2023-03-01T15:38:53;14.80;;;11.50;;
5553;SDS011;2800;49.528;8.666;2023-03-01T15:41:25;21.60;;;11.40;;
5553;SDS011;2800;49.528;8.666;2023-03-01T15:44:47;14.90;;;11.10;;
5553;SDS011;2800;49.528;8.666;2023-03-01T15:46:52;19.97;;;11.13;;
5553;SDS011;2800;49.528;8.666;2023-03-01T15:49:25;14.90;;;11.20;;
5553;SDS011;2800;49.528;8.666;2023-03-01T15:52:01;23.53;;;11.43;;
5553;SDS011;2800;49.528;8.666;2023-03-01T15:54:27;15.67;;;11.50;;
5553;SDS011;2800;49.528;8.666;2023-03-01T15:56:54;17.20;;;11.60;;
5553;SDS011;2800;49.528;8.666;2023-03-01T15:59:20;15.37;;;11.03;;
5553;SDS011;2800;49.528;8.666;2023-03-01T16:01:47;15.27;;;12.03;;
5553;SDS011;2800;49.528;8.666;2023-03-01T16:04:13;15.53;;;11.70;;
5553;SDS011;2800;49.528;8.666;2023-03-01T16:06:45;18.03;;;11.53;;
5553;SDS011;2800;49.528;8.666;2023-03-01T16:09:19;17.60;;;11.77;;
5553;SDS011;2800;49.528;8.666;2023-03-01T16:11:46;17.20;;;12.10;;
5553;SDS011;2800;49.528;8.666;2023-03-01T16:14:12;15.93;;;12.07;;
5553;SDS011;2800;49.528;8.666;2023-03-01T16:16:37;22.73;;;11.97;;
5553;SDS011;2800;49.528;8.666;2023-03-01T16:19:02;15.80;;;11.20;;
5553;SDS011;2800;49.528;8.666;2023-03-01T16:21:28;20.73;;;12.50;;
5553;SDS011;2800;49.528;8.666;2023-03-01T16:23:53;14.70;;;11.77;;
5553;SDS011;2800;49.528;8.666;2023-03-01T16:26:19;18.00;;;12.00;;
5553;SDS011;2800;49.528;8.666;2023-03-01T16:28:45;16.00;;;11.23;;
5553;SDS011;2800;49.528;8.666;2023-03-01T16:31:11;17.47;;;12.90;;
5553;SDS011;2800;49.528;8.666;2023-03-01T16:33:41;15.10;;;12.10;;
5553;SDS011;2800;49.528;8.666;2023-03-01T16:36:07;17.73;;;12.53;;
5553;SDS011;2800;49.528;8.666;2023-03-01T16:38:34;18.80;;;13.33;;
5553;SDS011;2800;49.528;8.666;2023-03-01T16:41:00;17.27;;;12.03;;
5553;SDS011;2800;49.528;8.666;2023-03-01T16:43:25;15.47;;;11.70;;